Time;durP1;ratioP1;P1;durP2;ratioP2;P2;SDS_P1;SDS_P2;PMS_P1;PMS_P2;Temp;Humidity;BMP_temperature;BMP_pressure;BME280_temperature;BME280_humidity;BME280_pressure;Samples;Min_cycle;Max_cycle;Signal;HPM_P1;HPM_P2
2023/03/13 00:01:54;;;;;;;;;;;;;;;8.80;100.00;99788.41;5085347;28;19927;-75
2023/03/13 00:04:20;;;;;;;;;;;;;;;8.87;100.00;99788.75;5081443;28;19924;-75
2023/03/13 00:06:45;;;;;;;;;;;;;;;8.75;100.00;99785.31;5083985;28;19965;-75
2023/03/13 00:09:12;;;;;;;;;;;;;;;8.83;100.00;99782.91;5098301;28;19920;-76
2023/03/13 00:11:38;;;;;;;;;;;;;;;8.92;100.00;99782.13;5082850;28;20390;-75
2023/03/13 00:14:04;;;;;;;;;;;;;;;8.88;100.00;99779.91;5083953;28;19959;-75
2023/03/13 00:16:30;;;;;;;;;;;;;;;8.82;100.00;99775.13;5085007;28;20360;-74
2023/03/13 00:18:56;;;;;;;;;;;;;;;8.89;100.00;99776.31;5084588;28;19927;-74
2023/03/13 00:21:23;;;;;;;;;;;;;;;8.94;100.00;99779.41;5062832;28;19935;-76
2023/03/13 00:23:48;;;;;;;;;;;;;;;8.69;100.00;99790.25;5083900;28;20378;-75
2023/03/13 00:26:15;;;;;;;;;;;;;;;8.61;100.00;99794.34;5082184;28;19953;-75
2023/03/13 00:28:41;;;;;;;;;;;;;;;8.59;100.00;99790.19;5083037;28;20453;-75
2023/03/13 00:31:07;;;;;;;;;;;;;;;8.54;100.00;99797.59;5083134;28;20317;-75
2023/03/13 00:33:33;;;;;;;;;;;;;;;8.54;100.00;99798.41;5081444;28;19927;-74
2023/03/13 00:36:03;;;;;;;;;;;;;;;8.45;100.00;99804.44;5084180;28;20347;-74
2023/03/13 00:38:30;;;;;;;;;;;;;;;8.48;100.00;99804.16;5080629;28;19921;-74
2023/03/13 00:41:03;;;;;;;;;;;;;;;8.45;100.00;99814.94;5084670;28;19927;-74
2023/03/13 00:43:29;;;;;;;;;;;;;;;8.40;100.00;99816.28;5096701;28;20383;-75
2023/03/13 00:45:54;;;;;;;;;;;;;;;8.44;100.00;99820.31;5084624;28;19973;-75
2023/03/13 00:48:20;;;;;;;;;;;;;;;8.28;100.00;99814.59;5065649;28;19924;-75
2023/03/13 00:50:45;;;;;;;;;;;;;;;8.35;100.00;99819.28;5083644;28;19925;-75
2023/03/13 00:53:11;;;;;;;;;;;;;;;8.30;100.00;99823.19;5065929;28;19920;-74
2023/03/13 00:55:36;;;;;;;;;;;;;;;8.35;100.00;99821.91;5083339;28;19927;-75
2023/03/13 00:58:02;;;;;;;;;;;;;;;8.37;100.00;99827.84;5081204;28;19920;-75
2023/03/13 01:00:27;;;;;;;;;;;;;;;8.45;100.00;99829.88;5084644;28;19956;-74
2023/03/13 01:02:53;;;;;;;;;;;;;;;8.45;100.00;99824.63;5062549;28;19951;-75
2023/03/13 01:05:18;;;;;;;;;;;;;;;8.50;100.00;99827.72;5083381;28;19928;-75
2023/03/13 01:07:43;;;;;;;;;;;;;;;8.55;100.00;99831.66;5082534;28;19963;-75
2023/03/13 01:10:09;;;;;;;;;;;;;;;8.56;100.00;99825.44;5066645;28;19920;-74
2023/03/13 01:12:35;;;;;;;;;;;;;;;8.61;100.00;99825.91;5085456;28;19920;-74
2023/03/13 01:15:02;;;;;;;;;;;;;;;8.59;100.00;99833.09;5081314;28;19927;-75
2023/03/13 01:17:28;;;;;;;;;;;;;;;8.49;100.00;99837.41;5099966;28;19920;-74
2023/03/13 01:19:55;;;;;;;;;;;;;;;8.55;100.00;99834.28;5085829;28;20026;-75
2023/03/13 01:22:20;;;;;;;;;;;;;;;8.66;100.00;99829.97;5096072;28;19921;-75
2023/03/13 01:24:48;;;;;;;;;;;;;;;8.50;100.00;99830.34;5082337;28;19931;-75
2023/03/13 01:27:14;;;;;;;;;;;;;;;8.43;100.00;99826.53;5080866;28;20414;-75
2023/03/13 01:29:41;;;;;;;;;;;;;;;8.46;100.00;99821.88;5063643;28;19924;-76
2023/03/13 01:32:06;;;;;;;;;;;;;;;8.44;100.00;99829.06;5081915;28;20380;-75
2023/03/13 01:34:32;;;;;;;;;;;;;;;8.57;100.00;99835.00;5080152;28;19927;-75
2023/03/13 01:36:58;;;;;;;;;;;;;;;8.71;100.00;99831.28;5083468;28;19989;-75
2023/03/13 01:39:23;;;;;;;;;;;;;;;8.75;100.00;99834.47;5065148;28;20383;-76
2023/03/13 01:41:48;;;;;;;;;;;;;;;8.82;100.00;99833.03;5080725;28;20395;-76
2023/03/13 01:44:19;;;;;;;;;;;;;;;8.76;100.00;99829.09;5078447;28;19931;-76
2023/03/13 01:46:45;;;;;;;;;;;;;;;8.83;100.00;99821.53;5060629;28;19928;-75
2023/03/13 01:49:32;;;;;;;;;;;;;;;8.84;100.00;99817.94;5061318;28;19970;-75
2023/03/13 01:52:27;;;;;;;;;;;;;;;8.82;100.00;99817.25;5082663;28;20032;-75
2023/03/13 01:55:01;;;;;;;;;;;;;;;8.81;100.00;99819.03;5061474;28;19920;-75
2023/03/13 01:57:29;;;;;;;;;;;;;;;8.75;100.00;99821.31;5082906;28;19970;-76
2023/03/13 02:00:01;;;;;;;;;;;;;;;8.79;100.00;99822.72;5094658;28;19943;-75
2023/03/13 02:02:27;;;;;;;;;;;;;;;8.78;100.00;99821.91;5065249;28;19920;-75
2023/03/13 02:04:56;;;;;;;;;;;;;;;8.88;100.00;99822.00;5079287;28;20065;-75
2023/03/13 02:07:33;;;;;;;;;;;;;;;8.76;100.00;99815.94;5082183;28;19986;-74
2023/03/13 02:09:59;;;;;;;;;;;;;;;8.76;100.00;99817.75;5079054;28;19920;-74
2023/03/13 02:12:29;;;;;;;;;;;;;;;8.69;100.00;99822.66;5064073;28;19920;-74
2023/03/13 02:14:56;;;;;;;;;;;;;;;8.70;100.00;99821.69;5082902;28;19920;-74
2023/03/13 02:17:22;;;;;;;;;;;;;;;8.61;100.00;99823.28;5078978;28;19927;-75
2023/03/13 02:19:50;;;;;;;;;;;;;;;8.61;100.00;99822.44;5065248;28;19927;-75
2023/03/13 02:22:16;;;;;;;;;;;;;;;8.65;100.00;99825.66;5079097;28;20268;-74
2023/03/13 02:24:51;;;;;;;;;;;;;;;8.73;100.00;99817.97;5080619;28;20027;-75
2023/03/13 02:27:17;;;;;;;;;;;;;;;8.69;100.00;99821.81;5094682;28;20061;-74
2023/03/13 02:29:43;;;;;;;;;;;;;;;8.65;100.00;99815.16;5062243;28;19997;-74
2023/03/13 02:32:09;;;;;;;;;;;;;;;8.45;100.00;99809.69;5080239;28;19958;-74
2023/03/13 02:34:36;;;;;;;;;;;;;;;8.54;100.00;99814.19;5079071;28;19921;-75
2023/03/13 02:37:05;;;;;;;;;;;;;;;8.41;100.00;99802.19;5096872;28;19920;-75
2023/03/13 02:39:31;;;;;;;;;;;;;;;8.45;100.00;99799.16;5060808;28;20273;-74
2023/03/13 02:41:57;;;;;;;;;;;;;;;8.53;100.00;99802.03;5079916;28;19920;-76
2023/03/13 02:44:23;;;;;;;;;;;;;;;8.49;100.00;99800.59;5076038;28;20011;-75
2023/03/13 02:46:51;;;;;;;;;;;;;;;8.54;100.00;99801.03;5078794;28;19928;-75
2023/03/13 02:49:20;;;;;;;;;;;;;;;8.56;100.00;99803.56;5090569;28;19936;-74
2023/03/13 02:51:46;;;;;;;;;;;;;;;8.54;100.00;99802.88;5081547;28;20342;-74
2023/03/13 02:54:19;;;;;;;;;;;;;;;8.45;100.00;99799.16;5062131;28;20252;-75
2023/03/13 02:56:47;;;;;;;;;;;;;;;8.42;100.00;99803.84;5080659;28;20246;-76
2023/03/13 02:59:13;;;;;;;;;;;;;;;8.54;100.00;99806.31;5079340;28;20339;-75
2023/03/13 03:01:41;;;;;;;;;;;;;;;8.60;100.00;99813.69;5080101;28;19982;-75
2023/03/13 03:04:07;;;;;;;;;;;;;;;8.69;100.00;99809.50;5061962;28;19920;-75
2023/03/13 03:06:33;;;;;;;;;;;;;;;8.64;100.00;99809.03;5079077;28;19944;-73
2023/03/13 03:09:01;;;;;;;;;;;;;;;8.67;100.00;99813.22;5081579;28;20270;-76
2023/03/13 03:11:28;;;;;;;;;;;;;;;8.62;100.00;99803.91;5059897;28;19921;-75
2023/03/13 03:14:00;;;;;;;;;;;;;;;8.71;100.00;99809.38;5063543;28;19927;-75
2023/03/13 03:16:28;;;;;;;;;;;;;;;8.61;100.00;99804.84;5060221;28;19924;-75
2023/03/13 03:18:53;;;;;;;;;;;;;;;8.76;100.00;99809.84;5084080;28;19925;-74
2023/03/13 03:21:20;;;;;;;;;;;;;;;8.67;100.00;99810.56;5078819;28;19924;-74
2023/03/13 03:23:45;;;;;;;;;;;;;;;8.72;100.00;99816.31;5062388;28;20291;-74
2023/03/13 03:26:11;;;;;;;;;;;;;;;8.81;100.00;99823.47;5095246;28;19920;-74
2023/03/13 03:28:37;;;;;;;;;;;;;;;8.74;100.00;99831.00;5060887;28;20015;-74
2023/03/13 03:31:08;;;;;;;;;;;;;;;8.67;100.00;99818.47;5080188;28;20288;-73
2023/03/13 03:33:35;;;;;;;;;;;;;;;8.78;100.00;99831.59;5078902;28;20345;-72
2023/03/13 03:36:08;;;;;;;;;;;;;;;8.72;100.00;99832.13;5080701;28;20221;-73
2023/03/13 03:38:34;;;;;;;;;;;;;;;8.80;100.00;99841.03;5060492;28;19928;-74
2023/03/13 03:40:59;;;;;;;;;;;;;;;8.88;100.00;99837.78;5064483;28;20375;-73
2023/03/13 03:43:25;;;;;;;;;;;;;;;8.82;100.00;99833.03;5096829;28;20410;-73
2023/03/13 03:45:51;;;;;;;;;;;;;;;8.72;100.00;99832.13;5059905;28;20332;-72
2023/03/13 03:48:17;;;;;;;;;;;;;;;8.67;100.00;99842.16;5061643;28;19966;-73
2023/03/13 03:50:42;;;;;;;;;;;;;;;8.58;100.00;99852.47;5061169;28;19920;-72
2023/03/13 03:53:08;;;;;;;;;;;;;;;8.55;100.00;99847.44;5060820;28;20046;-72
2023/03/13 03:55:34;;;;;;;;;;;;;;;8.51;100.00;99848.66;5062659;28;19920;-73
2023/03/13 03:57:59;;;;;;;;;;;;;;;8.49;100.00;99853.19;5059727;28;20041;-73
2023/03/13 04:00:51;;;;;;;;;;;;;;;8.37;100.00;99859.41;5078107;28;19927;-74
2023/03/13 04:03:16;;;;;;;;;;;;;;;8.39;100.00;99852.25;5061649;28;19924;-73
2023/03/13 04:05:42;;;;;;;;;;;;;;;8.34;100.00;99854.41;5079839;28;19985;-72
2023/03/13 04:08:08;;;;;;;;;;;;;;;8.32;100.00;99869.47;5060688;28;19953;-73
2023/03/13 04:10:34;;;;;;;;;;;;;;;8.30;100.00;99879.28;5066709;28;19959;-73
2023/03/13 04:13:00;;;;;;;;;;;;;;;8.13;100.00;99874.44;5079468;28;20292;-73
2023/03/13 04:15:25;;;;;;;;;;;;;;;8.11;100.00;99876.38;5066539;28;19924;-74
2023/03/13 04:17:51;;;;;;;;;;;;;;;8.11;100.00;99873.75;5063560;28;19960;-73
2023/03/13 04:20:19;;;;;;;;;;;;;;;8.18;100.00;99872.31;5065653;28;20007;-73
2023/03/13 04:22:44;;;;;;;;;;;;;;;8.32;100.00;99872.09;5098283;28;19927;-74
2023/03/13 04:25:11;;;;;;;;;;;;;;;8.27;100.00;99863.69;5064744;28;20329;-72
2023/03/13 04:27:37;;;;;;;;;;;;;;;8.27;100.00;99858.44;5099554;28;20011;-73
2023/03/13 04:30:04;;;;;;;;;;;;;;;8.32;100.00;99864.19;5063503;28;20292;-73
2023/03/13 04:33:02;;;;;;;;;;;;;;;8.36;100.00;99865.66;5046724;28;19920;-72
2023/03/13 04:35:41;;;;;;;;;;;;;;;8.40;100.00;99874.97;5064790;28;19950;-72
2023/03/13 04:38:18;;;;;;;;;;;;;;;8.43;100.00;99874.72;5065315;28;20280;-71
2023/03/13 04:41:13;;;;;;;;;;;;;;;8.32;100.00;99872.09;5029283;28;19922;-71
2023/03/13 04:43:55;;;;;;;;;;;;;;;8.25;100.00;99862.97;5080740;28;19940;-72
2023/03/13 04:46:40;;;;;;;;;;;;;;;8.30;100.00;99883.66;5066895;28;19923;-72
2023/03/13 04:49:20;;;;;;;;;;;;;;;8.35;100.00;99885.00;5083289;28;19974;-72
2023/03/13 04:52:05;;;;;;;;;;;;;;;8.25;100.00;99878.75;5081271;28;19949;-71
2023/03/13 04:54:53;;;;;;;;;;;;;;;8.07;100.00;99885.47;5060011;28;19920;-72
2023/03/13 04:57:32;;;;;;;;;;;;;;;8.08;100.00;99879.22;5084937;28;20276;-71
2023/03/13 05:00:16;;;;;;;;;;;;;;;7.96;100.00;99886.28;5083206;28;19944;-74
2023/03/13 05:02:49;;;;;;;;;;;;;;;7.88;100.00;99893.94;5097244;28;19920;-73
2023/03/13 05:05:45;;;;;;;;;;;;;;;7.80;100.00;99904.16;5082117;28;19920;-72
2023/03/13 05:08:35;;;;;;;;;;;;;;;7.75;100.00;99912.41;5049739;28;20015;-74
2023/03/13 05:11:40;;;;;;;;;;;;;;;7.88;100.00;99899.19;5019564;28;19948;-73
2023/03/13 05:14:23;;;;;;;;;;;;;;;7.92;100.00;99889.25;5000704;28;19940;-73
2023/03/13 05:17:09;;;;;;;;;;;;;;;8.00;100.00;99893.00;5017029;28;20140;-73
2023/03/13 05:20:10;;;;;;;;;;;;;;;7.98;100.00;99894.03;4987786;28;20372;-74
2023/03/13 05:22:43;;;;;;;;;;;;;;;7.96;100.00;99893.31;5022500;28;19928;-74
2023/03/13 05:25:27;;;;;;;;;;;;;;;7.83;100.00;99899.50;5020457;28;19928;-74
2023/03/13 05:28:06;;;;;;;;;;;;;;;7.81;100.00;99896.19;5021107;28;20388;-73
2023/03/13 05:30:52;;;;;;;;;;;;;;;7.76;100.00;99885.19;5001613;28;20059;-74
2023/03/13 05:33:37;;;;;;;;;;;;;;;7.80;100.00;99876.13;5007577;28;20324;-73
2023/03/13 05:36:28;;;;;;;;;;;;;;;7.72;100.00;99881.09;5021498;28;19921;-74
2023/03/13 05:39:05;;;;;;;;;;;;;;;7.61;100.00;99875.84;5018693;28;19921;-74
2023/03/13 05:41:46;;;;;;;;;;;;;;;7.57;100.00;99869.16;5033356;28;20298;-75
2023/03/13 05:44:23;;;;;;;;;;;;;;;7.66;100.00;99873.69;5083172;28;19985;-73
2023/03/13 05:47:08;;;;;;;;;;;;;;;7.77;100.00;99859.75;5081017;28;19926;-72
2023/03/13 05:50:09;;;;;;;;;;;;;;;7.87;100.00;99854.63;5003721;28;19929;-74
2023/03/13 05:52:55;;;;;;;;;;;;;;;7.96;100.00;99848.66;5053763;28;19959;-74
2023/03/13 05:55:34;;;;;;;;;;;;;;;7.98;100.00;99847.59;5066836;28;19924;-74
2023/03/13 05:58:19;;;;;;;;;;;;;;;8.09;100.00;99857.25;5029090;28;19935;-74
2023/03/13 06:01:12;;;;;;;;;;;;;;;8.08;100.00;99868.72;5052228;28;19920;-75
2023/03/13 06:03:38;;;;;;;;;;;;;;;8.15;100.00;99869.91;5067800;28;19985;-74
2023/03/13 06:06:04;;;;;;;;;;;;;;;8.18;100.00;99867.06;5049515;28;19924;-75
2023/03/13 06:08:56;;;;;;;;;;;;;;;8.22;100.00;99860.59;5081500;28;19986;-74
2023/03/13 06:11:25;;;;;;;;;;;;;;;8.20;100.00;99863.34;5067965;28;19927;-74
2023/03/13 06:13:51;;;;;;;;;;;;;;;8.25;100.00;99875.31;5065566;28;20300;-74
2023/03/13 06:16:27;;;;;;;;;;;;;;;8.28;100.00;99893.47;5067553;28;19924;-73
2023/03/13 06:18:57;;;;;;;;;;;;;;;8.36;100.00;99905.09;5088414;28;20403;-76
2023/03/13 06:21:22;;;;;;;;;;;;;;;8.30;100.00;99900.31;5084572;28;19920;-76
2023/03/13 06:23:48;;;;;;;;;;;;;;;8.31;100.00;99906.38;5092169;28;19921;-76
2023/03/13 06:26:13;;;;;;;;;;;;;;;8.36;100.00;99891.94;5079612;28;19939;-74
2023/03/13 06:28:39;;;;;;;;;;;;;;;8.32;100.00;99894.91;5080101;28;19920;-73
2023/03/13 06:31:06;;;;;;;;;;;;;;;8.37;100.00;99909.38;5077909;28;19972;-75
2023/03/13 06:33:31;;;;;;;;;;;;;;;8.42;100.00;99907.25;5082144;28;20267;-75
2023/03/13 06:35:57;;;;;;;;;;;;;;;8.21;100.00;99911.50;5080818;28;19965;-74
2023/03/13 06:38:25;;;;;;;;;;;;;;;8.27;100.00;99911.03;5081311;28;19947;-75
2023/03/13 06:40:51;;;;;;;;;;;;;;;8.28;100.00;99901.34;5084511;28;19963;-75
2023/03/13 06:43:16;;;;;;;;;;;;;;;8.32;100.00;99903.66;5082756;28;19924;-75
2023/03/13 06:45:42;;;;;;;;;;;;;;;8.33;100.00;99892.19;5084563;28;19968;-75
2023/03/13 06:48:07;;;;;;;;;;;;;;;8.35;100.00;99892.91;5082098;28;19927;-75
2023/03/13 06:50:36;;;;;;;;;;;;;;;8.37;100.00;99906.75;5083339;28;20026;-74
2023/03/13 06:53:02;;;;;;;;;;;;;;;8.43;100.00;99915.94;5084440;28;20368;-74
2023/03/13 06:55:27;;;;;;;;;;;;;;;8.41;100.00;99931.03;5085773;28;19920;-75
2023/03/13 06:57:56;;;;;;;;;;;;;;;8.34;100.00;99927.19;5069103;28;19932;-74
2023/03/13 07:00:21;;;;;;;;;;;;;;;8.42;100.00;99919.56;5081614;28;19963;-76
2023/03/13 07:02:47;;;;;;;;;;;;;;;8.48;100.00;99909.38;5085045;28;19994;-76
2023/03/13 07:05:13;;;;;;;;;;;;;;;8.50;100.00;99912.72;5065906;28;19980;-76
2023/03/13 07:07:39;;;;;;;;;;;;;;;8.56;100.00;99920.13;5082627;28;19927;-75
2023/03/13 07:10:05;;;;;;;;;;;;;;;8.54;100.00;99914.16;5081218;28;19978;-75
2023/03/13 07:12:30;;;;;;;;;;;;;;;8.49;100.00;99911.03;5081856;28;19920;-75
2023/03/13 07:14:56;;;;;;;;;;;;;;;8.53;100.00;99917.75;5078702;28;19974;-76
2023/03/13 07:17:21;;;;;;;;;;;;;;;8.56;100.00;99917.50;5082962;28;19932;-75
2023/03/13 07:19:47;;;;;;;;;;;;;;;8.74;100.00;99917.00;5082047;28;19927;-75
2023/03/13 07:22:12;;;;;;;;;;;;;;;8.89;100.00;99908.72;5083652;28;19924;-76
2023/03/13 07:24:38;;;;;;;;;;;;;;;8.98;100.00;99902.72;5082599;28;20057;-76
2023/03/13 07:27:03;;;;;;;;;;;;;;;9.10;100.00;99895.63;5081403;28;19965;-76
2023/03/13 07:29:28;;;;;;;;;;;;;;;9.13;100.00;99900.63;5082447;28;19965;-77
2023/03/13 07:31:54;;;;;;;;;;;;;;;9.14;100.00;99907.56;5098132;28;19920;-76
2023/03/13 07:34:19;;;;;;;;;;;;;;;9.03;100.00;99904.97;5081941;28;20425;-75
2023/03/13 07:36:45;;;;;;;;;;;;;;;8.98;100.00;99909.78;5079878;28;19932;-75
2023/03/13 07:39:10;;;;;;;;;;;;;;;8.98;100.00;99902.72;5079457;28;19932;-75
2023/03/13 07:41:35;;;;;;;;;;;;;;;9.02;100.00;99903.28;5080394;28;19916;-75
2023/03/13 07:44:01;;;;;;;;;;;;;;;9.13;100.00;99897.97;5060310;28;19950;-75
2023/03/13 07:46:26;;;;;;;;;;;;;;;9.20;100.00;99896.53;5082489;28;20312;-75
2023/03/13 07:48:52;;;;;;;;;;;;;;;9.26;100.00;99896.03;5063522;28;19920;-75
2023/03/13 07:51:20;;;;;;;;;;;;;;;9.26;100.00;99905.72;5065785;28;19972;-74
2023/03/13 07:53:48;;;;;;;;;;;;;;;9.25;100.00;99910.16;5083148;28;20328;-74
2023/03/13 07:56:15;;;;;;;;;;;;;;;9.30;100.00;99908.00;5085394;28;20009;-75
2023/03/13 07:58:41;;;;;;;;;;;;;;;9.34;100.00;99913.84;5083424;28;19920;-76
2023/03/13 08:01:09;;;;;;;;;;;;;;;9.41;100.00;99926.38;5082474;28;20303;-75
2023/03/13 08:03:35;;;;;;;;;;;;;;;9.45;100.00;99933.06;5084590;28;20326;-76
2023/03/13 08:06:03;;;;;;;;;;;;;;;9.42;100.00;99928.03;5081673;28;19920;-75
2023/03/13 08:08:28;;;;;;;;;;;;;;;9.34;100.00;99934.91;5081782;28;20372;-75
2023/03/13 08:10:58;;;;;;;;;;;;;;;9.42;100.00;99928.03;5084514;28;19931;-77
2023/03/13 08:13:24;;;;;;;;;;;;;;;9.52;100.00;99932.56;5081654;28;19981;-76
2023/03/13 08:15:49;;;;;;;;;;;;;;;9.56;100.00;99940.06;5084157;28;19959;-76
2023/03/13 08:18:14;;;;;;;;;;;;;;;9.67;100.00;99931.28;5064109;28;19934;-75
2023/03/13 08:20:40;;;;;;;;;;;;;;;9.65;100.00;99946.38;5082766;28;19943;-76
2023/03/13 08:23:05;;;;;;;;;;;;;;;9.78;100.00;99941.75;5083670;28;20008;-77
2023/03/13 08:25:31;;;;;;;;;;;;;;;9.88;100.00;99940.03;5081400;28;19921;-77
2023/03/13 08:27:57;;;;;;;;;;;;;;;9.89;100.00;99941.72;5085021;28;19966;-77
2023/03/13 08:30:22;;;;;;;;;;;;;;;9.94;100.00;99939.53;5084117;28;19920;-76
2023/03/13 08:32:47;;;;;;;;;;;;;;;10.04;100.00;99936.94;5082233;28;19923;-76
2023/03/13 08:35:13;;;;;;;;;;;;;;;10.14;100.00;99932.53;5082795;28;19925;-76
2023/03/13 08:37:38;;;;;;;;;;;;;;;10.24;100.00;99931.69;5083415;28;19931;-75
2023/03/13 08:40:09;;;;;;;;;;;;;;;10.29;100.00;99939.19;5081405;28;19982;-76
2023/03/13 08:42:34;;;;;;;;;;;;;;;10.31;100.00;99942.50;5083902;28;19947;-76
2023/03/13 08:45:00;;;;;;;;;;;;;;;10.35;100.00;99932.56;5080995;28;20426;-74
2023/03/13 08:47:25;;;;;;;;;;;;;;;10.32;100.00;99943.34;5099958;28;19999;-76
2023/03/13 08:49:51;;;;;;;;;;;;;;;10.25;100.00;99940.41;5081438;28;19968;-75
2023/03/13 08:52:16;;;;;;;;;;;;;;;10.27;100.00;99952.50;5083050;28;19921;-76
2023/03/13 08:54:42;;;;;;;;;;;;;;;10.36;100.00;99950.06;5065029;28;19920;-76
2023/03/13 08:57:07;;;;;;;;;;;;;;;10.36;100.00;99964.09;5083745;28;19921;-75
2023/03/13 08:59:33;;;;;;;;;;;;;;;10.38;100.00;99961.28;5090615;28;19920;-75
2023/03/13 09:01:58;;;;;;;;;;;;;;;10.40;100.00;99957.56;5081986;28;20007;-75
2023/03/13 09:04:24;;;;;;;;;;;;;;;10.34;100.00;99959.88;5083127;28;20049;-76
2023/03/13 09:06:49;;;;;;;;;;;;;;;10.30;100.00;99950.56;5081202;28;19928;-75
2023/03/13 09:09:14;;;;;;;;;;;;;;;10.30;100.00;99951.41;5081489;28;19957;-75
2023/03/13 09:11:40;;;;;;;;;;;;;;;10.41;100.00;99955.75;5081253;28;19969;-75
2023/03/13 09:14:06;;;;;;;;;;;;;;;10.45;100.00;99943.97;5082269;28;19924;-76
2023/03/13 09:16:32;;;;;;;;;;;;;;;10.44;100.00;99943.13;5087773;28;20280;-76
2023/03/13 09:18:58;;;;;;;;;;;;;;;10.45;100.00;99944.81;5088862;28;19931;-75
2023/03/13 09:21:31;;;;;;;;;;;;;;;10.45;100.00;99943.97;5084938;28;19920;-75
2023/03/13 09:23:56;;;;;;;;;;;;;;;10.41;100.00;99951.31;5089866;28;20335;-75
2023/03/13 09:26:22;;;;;;;;;;;;;;;10.41;100.00;99937.28;5083830;28;19977;-75
2023/03/13 09:28:48;;;;;;;;;;;;;;;10.59;100.00;99933.06;5079554;28;20077;-74
2023/03/13 09:31:13;;;;;;;;;;;;;;;10.64;100.00;99944.06;5080708;28;19928;-75
2023/03/13 09:33:39;;;;;;;;;;;;;;;10.45;100.00;99939.53;5082064;28;20287;-76
2023/03/13 09:36:05;;;;;;;;;;;;;;;10.49;100.00;99940.09;5082612;28;19963;-77
2023/03/13 09:38:30;;;;;;;;;;;;;;;10.60;100.00;99938.19;5081410;28;19926;-75
2023/03/13 09:41:00;;;;;;;;;;;;;;;10.73;100.00;99937.97;5085724;28;19920;-76
2023/03/13 09:43:41;;;;;;;;;;;;;;;10.91;100.00;99931.06;5082525;28;19927;-76
2023/03/13 09:46:27;;;;;;;;;;;;;;;11.07;100.00;99920.00;5077653;28;19920;-74
2023/03/13 09:48:58;;;;;;;;;;;;;;;11.17;100.00;99914.72;5080302;28;19924;-77
2023/03/13 09:51:29;;;;;;;;;;;;;;;11.31;100.00;99922.25;5081587;28;20391;-76
2023/03/13 09:53:54;;;;;;;;;;;;;;;11.40;100.00;99931.97;5079141;28;19920;-76
2023/03/13 09:56:23;;;;;;;;;;;;;;;11.52;100.00;99920.28;5082098;28;20222;-76
2023/03/13 09:59:01;;;;;;;;;;;;;;;11.63;100.00;99922.78;5079672;28;19968;-75
2023/03/13 10:01:28;;;;;;;;;;;;;;;11.69;100.00;99927.50;5078528;28;19924;-77
2023/03/13 10:04:04;;;;;;;;;;;;;;;11.77;100.00;99921.56;5078902;28;19928;-76
2023/03/13 10:06:33;;;;;;;;;;;;;;;11.89;100.00;99908.03;5082934;28;19920;-75
2023/03/13 10:09:00;;;;;;;;;;;;;;;11.90;100.00;99920.25;5078368;28;19974;-77
2023/03/13 10:11:27;;;;;;;;;;;;;;;11.78;100.00;99931.97;5087000;28;19932;-77
2023/03/13 10:13:52;;;;;;;;;;;;;;;11.83;100.00;99921.81;5078447;28;19931;-76
2023/03/13 10:16:22;;;;;;;;;;;;;;;11.90;100.00;99925.53;5079943;28;19920;-76
2023/03/13 10:18:52;;;;;;;;;;;;;;;11.78;100.00;99931.97;5079721;28;19920;-76
2023/03/13 10:21:21;;;;;;;;;;;;;;;11.94;100.00;99935.84;5082124;28;19920;-75
2023/03/13 10:24:06;;;;;;;;;;;;;;;12.08;100.00;99936.22;5082433;28;19920;-76
2023/03/13 10:26:33;;;;;;;;;;;;;;;12.08;100.00;99932.75;5046405;28;19966;-76
2023/03/13 10:29:17;;;;;;;;;;;;;;;11.96;100.00;99928.63;5078167;28;19921;-76
2023/03/13 10:31:45;;;;;;;;;;;;;;;12.00;100.00;99936.13;5079389;28;19920;-76
2023/03/13 10:34:11;;;;;;;;;;;;;;;12.16;100.00;99936.34;5080178;28;19931;-76
2023/03/13 10:36:48;;;;;;;;;;;;;;;12.24;100.00;99930.34;5078353;28;19965;-75
2023/03/13 10:39:18;;;;;;;;;;;;;;;12.30;100.00;99922.66;5061804;28;19962;-76
2023/03/13 10:41:43;;;;;;;;;;;;;;;12.29;100.00;99907.75;5079092;28;19973;-76
2023/03/13 10:44:32;;;;;;;;;;;;;;;12.36;100.00;99905.38;5080681;28;19924;-76
2023/03/13 10:47:01;;;;;;;;;;;;;;;12.34;100.00;99901.19;5072918;28;19920;-76
2023/03/13 10:49:28;;;;;;;;;;;;;;;12.34;100.00;99902.03;5077831;28;19963;-76
2023/03/13 10:51:54;;;;;;;;;;;;;;;12.38;100.00;99898.09;5080434;28;19920;-76
2023/03/13 10:54:24;;;;;;;;;;;;;;;12.45;100.00;99883.31;5078912;28;20023;-75
2023/03/13 10:56:50;;;;;;;;;;;;;;;12.53;100.00;99872.84;5081688;28;19920;-76
2023/03/13 10:59:23;;;;;;;;;;;;;;;12.67;100.00;99867.03;5078960;28;19927;-75
2023/03/13 11:01:50;;;;;;;;;;;;;;;12.66;100.00;99875.94;5079362;28;19973;-76
2023/03/13 11:04:36;;;;;;;;;;;;;;;12.61;100.00;99878.22;5078706;28;19920;-74
2023/03/13 11:07:05;;;;;;;;;;;;;;;12.62;100.00;99879.03;5081311;28;19920;-75
2023/03/13 11:09:31;;;;;;;;;;;;;;;12.71;100.00;99878.16;5059541;28;19920;-76
2023/03/13 11:12:22;;;;;;;;;;;;;;;12.68;100.00;99879.28;5081410;28;20442;-76
2023/03/13 11:14:55;;;;;;;;;;;;;;;12.76;100.00;99869.78;5077428;28;19932;-75
2023/03/13 11:17:29;;;;;;;;;;;;;;;12.75;100.00;99873.41;5078601;28;20368;-76
2023/03/13 11:20:13;;;;;;;;;;;;;;;12.59;100.00;99866.94;5080347;28;20434;-76
2023/03/13 11:22:46;;;;;;;;;;;;;;;12.53;100.00;99870.19;5081224;28;19974;-75
2023/03/13 11:25:20;;;;;;;;;;;;;;;12.46;100.00;99853.22;5083918;28;20340;-76
2023/03/13 11:28:16;;;;;;;;;;;;;;;12.41;100.00;99850.19;5085557;28;20378;-76
2023/03/13 11:30:57;;;;;;;;;;;;;;;12.24;100.00;99848.31;5085861;28;20359;-76
2023/03/13 11:33:28;;;;;;;;;;;;;;;12.28;100.00;99847.88;5083850;28;20467;-76
2023/03/13 11:36:00;;;;;;;;;;;;;;;12.34;100.00;99854.41;5081556;28;19943;-74
2023/03/13 11:38:44;;;;;;;;;;;;;;;12.41;100.00;99860.78;5083705;28;19920;-75
2023/03/13 11:41:22;;;;;;;;;;;;;;;12.47;100.00;99860.19;5081006;28;19923;-76
2023/03/13 11:43:50;;;;;;;;;;;;;;;12.60;100.00;99855.38;5082744;28;19973;-76
2023/03/13 11:46:16;;;;;;;;;;;;;;;12.64;100.00;99846.16;5082459;28;20398;-76
2023/03/13 11:48:54;;;;;;;;;;;;;;;12.83;100.00;99841.72;5049031;28;19916;-76
2023/03/13 11:51:28;;;;;;;;;;;;;;;12.78;100.00;99841.34;5082843;28;19927;-76
2023/03/13 11:54:03;;;;;;;;;;;;;;;12.85;100.00;99837.09;5081988;28;19924;-73
2023/03/13 11:56:34;;;;;;;;;;;;;;;12.97;100.00;99825.28;5087987;28;20411;-77
2023/03/13 11:59:29;;;;;;;;;;;;;;;13.07;100.00;99816.31;5081108;28;20430;-76
2023/03/13 12:01:58;;;;;;;;;;;;;;;13.23;100.00;99820.94;5017981;28;20464;-76
2023/03/13 12:04:27;;;;;;;;;;;;;;;13.12;100.00;99826.47;5084793;28;19924;-75
2023/03/13 12:07:01;;;;;;;;;;;;;;;13.16;100.00;99808.44;5083142;28;20364;-77
2023/03/13 12:09:30;;;;;;;;;;;;;;;13.24;100.00;99796.09;5080864;28;20015;-76
2023/03/13 12:12:04;;;;;;;;;;;;;;;13.18;100.00;99794.06;5083270;28;20401;-76
2023/03/13 12:14:30;;;;;;;;;;;;;;;13.24;100.00;99787.31;5080833;28;19921;-76
2023/03/13 12:16:55;;;;;;;;;;;;;;;13.33;100.00;99784.56;5083707;28;19920;-75
2023/03/13 12:19:41;;;;;;;;;;;;;;;13.36;100.00;99784.25;5081566;28;19920;-77
2023/03/13 12:22:16;;;;;;;;;;;;;;;13.35;100.00;99776.47;5073180;28;20394;-77
2023/03/13 12:24:48;;;;;;;;;;;;;;;13.42;100.00;99772.22;5063489;28;20005;-77
2023/03/13 12:27:20;;;;;;;;;;;;;;;13.45;100.00;99767.41;5083304;28;19931;-78
2023/03/13 12:29:54;;;;;;;;;;;;;;;13.53;100.00;99767.47;5082303;28;20387;-77
2023/03/13 12:32:32;;;;;;;;;;;;;;;13.53;100.00;99767.47;5081941;28;20731;-77
2023/03/13 12:35:00;;;;;;;;;;;;;;;13.44;100.00;99760.44;5080372;28;20352;-77
2023/03/13 12:37:37;;;;;;;;;;;;;;;13.49;100.00;99763.44;5083175;28;20381;-77
2023/03/13 12:40:12;;;;;;;;;;;;;;;13.37;100.00;99751.44;5084275;28;19916;-77
2023/03/13 12:42:43;;;;;;;;;;;;;;;13.37;100.00;99743.50;5080464;28;20399;-77
2023/03/13 12:45:14;;;;;;;;;;;;;;;13.43;100.00;99726.97;5083042;28;19927;-76
2023/03/13 12:47:40;;;;;;;;;;;;;;;13.41;100.00;99734.25;5081142;28;19921;-77
2023/03/13 12:50:24;;;;;;;;;;;;;;;13.32;100.00;99737.84;5083292;28;19934;-76
2023/03/13 12:52:49;;;;;;;;;;;;;;;13.34;100.00;99735.88;5082376;28;19921;-77
2023/03/13 12:55:32;;;;;;;;;;;;;;;13.28;100.00;99735.66;5082018;28;19916;-75
2023/03/13 12:58:15;;;;;;;;;;;;;;;13.34;100.00;99719.13;5090652;28;20652;-75
2023/03/13 13:00:42;;;;;;;;;;;;;;;13.39;100.00;99698.28;5082716;28;19921;-75